Time;durP1;ratioP1;P1;durP2;ratioP2;P2;SDS_P1;SDS_P2;PMS_P1;PMS_P2;Temp;Humidity;BMP_temperature;BMP_pressure;BME280_temperature;BME280_humidity;BME280_pressure;Samples;Min_cycle;Max_cycle;Signal;HPM_P1;HPM_P2
2023/09/15 00:45:11;;;;;;;23.38;21.02;;;;;;;10.75;100.00;101925.19;6153543;23;20036;-65
2023/09/15 00:48:03;;;;;;;23.73;21.40;;;;;;;10.70;100.00;101923.41;6091672;23;20023;-68
2023/09/15 00:50:31;;;;;;;22.63;20.38;;;;;;;10.69;100.00;101922.56;6068718;23;20021;-68
2023/09/15 00:53:09;;;;;;;24.55;21.33;;;;;;;10.67;100.00;101929.50;6067042;23;20430;-68
2023/09/15 00:55:36;;;;;;;24.02;21.92;;;;;;;10.63;100.00;101919.00;6091215;23;20437;-68
2023/09/15 00:58:03;;;;;;;24.15;21.58;;;;;;;10.66;100.00;101922.53;6067502;23;20473;-68
2023/09/15 01:00:31;;;;;;;23.88;21.58;;;;;;;10.67;100.00;101924.28;6091785;23;20173;-68
2023/09/15 01:02:57;;;;;;;22.65;20.48;;;;;;;10.63;100.00;101925.16;6066645;23;20429;-68
2023/09/15 01:05:23;;;;;;;23.77;21.67;;;;;;;10.63;100.00;101919.91;6067228;23;20046;-68
2023/09/15 01:07:52;;;;;;;25.52;23.08;;;;;;;10.62;100.00;101907.66;6043084;23;20105;-68
2023/09/15 01:10:19;;;;;;;25.42;22.92;;;;;;;10.61;100.00;101905.91;6068282;23;20093;-68
2023/09/15 01:12:45;;;;;;;23.55;21.35;;;;;;;10.54;100.00;101905.00;6090110;23;20014;-68
2023/09/15 01:15:11;;;;;;;25.15;22.77;;;;;;;10.57;100.00;101910.28;6090044;23;20033;-68
2023/09/15 01:17:45;;;;;;;23.75;21.42;;;;;;;10.56;100.00;101900.66;6089447;23;20010;-68
2023/09/15 01:20:48;;;;;;;24.20;21.75;;;;;;;10.58;100.00;101893.66;6089937;23;20133;-65
2023/09/15 01:23:42;;;;;;;22.40;20.15;;;;;;;10.56;100.00;101905.03;6090242;23;20022;-65
2023/09/15 01:26:47;;;;;;;23.73;21.52;;;;;;;10.55;100.00;101895.41;6141658;23;20016;-65
2023/09/15 01:29:38;;;;;;;23.23;20.95;;;;;;;10.56;100.00;101899.78;6120777;23;20013;-65
2023/09/15 01:32:05;;;;;;;;;;;;;;;10.60;100.00;101904.13;6119548;23;20262;-65
2023/09/15 01:34:31;;;;;;;22.65;20.45;;;;;;;10.45;100.00;101893.59;6125667;23;19951;-65
2023/09/15 01:36:56;;;;;;;24.08;21.67;;;;;;;10.44;100.00;101897.06;6099390;23;20017;-65
2023/09/15 01:39:22;;;;;;;26.08;20.90;;;;;;;10.37;100.00;101886.56;6126464;23;20017;-65
2023/09/15 01:41:47;;;;;;;24.17;21.85;;;;;;;10.39;100.00;101890.06;6101654;23;20024;-65
2023/09/15 01:44:12;;;;;;;23.63;21.40;;;;;;;10.38;100.00;101887.44;6109388;23;20081;-65
2023/09/15 01:46:38;;;;;;;22.85;20.65;;;;;;;10.24;100.00;101884.69;6113037;23;20021;-65
2023/09/15 01:49:04;;;;;;;23.15;20.90;;;;;;;10.29;100.00;101876.88;6101558;23;20020;-65
2023/09/15 01:51:31;;;;;;;23.00;20.75;;;;;;;10.27;100.00;101884.75;6102097;23;20088;-65
2023/09/15 01:53:57;;;;;;;23.13;20.92;;;;;;;10.31;100.00;101881.25;6101869;23;20014;-65
2023/09/15 01:56:27;;;;;;;23.63;21.42;;;;;;;10.30;100.00;101884.75;6124576;23;20452;-68
2023/09/15 01:58:52;;;;;;;22.88;20.58;;;;;;;10.29;100.00;101876.88;6102467;23;20092;-68
2023/09/15 02:01:18;;;;;;;24.00;21.52;;;;;;;10.34;100.00;101880.41;6126434;23;20009;-69
2023/09/15 02:03:43;;;;;;;24.52;22.27;;;;;;;10.31;100.00;101881.25;6101245;23;20017;-68
2023/09/15 02:06:16;;;;;;;23.77;21.20;;;;;;;10.34;100.00;101883.03;6126168;23;20327;-69
2023/09/15 02:08:47;;;;;;;24.85;22.25;;;;;;;10.33;100.00;101873.38;6103786;23;20009;-68
2023/09/15 02:11:12;;;;;;;23.48;21.27;;;;;;;10.32;100.00;101874.28;6126920;23;20444;-68
2023/09/15 02:13:40;;;;;;;24.10;21.60;;;;;;;10.27;100.00;101878.59;6128167;23;20009;-68
2023/09/15 02:16:05;;;;;;;23.63;21.15;;;;;;;10.25;100.00;101869.88;6127972;23;20009;-69
2023/09/15 02:18:31;;;;;;;23.25;21.05;;;;;;;10.27;100.00;101876.88;6126863;23;20017;-69
2023/09/15 02:20:57;;;;;;;23.33;21.10;;;;;;;10.25;100.00;101875.97;6128963;23;20020;-69
2023/09/15 02:23:24;;;;;;;25.42;20.35;;;;;;;10.24;100.00;101876.84;6128190;23;20013;-68
2023/09/15 02:25:50;;;;;;;23.70;21.40;;;;;;;10.18;100.00;101882.91;6103540;23;20301;-68
2023/09/15 02:28:16;;;;;;;22.92;20.77;;;;;;;10.22;100.00;101875.97;6079976;23;20002;-68
2023/09/15 02:30:41;;;;;;;22.95;20.85;;;;;;;10.14;100.00;101877.63;6104266;23;20010;-68
2023/09/15 02:33:07;;;;;;;22.25;20.08;;;;;;;10.12;100.00;101875.00;6128645;23;20042;-69
2023/09/15 02:35:33;;;;;;;22.30;20.10;;;;;;;10.08;100.00;101867.13;6103842;23;20037;-69
2023/09/15 02:37:58;;;;;;;21.23;19.33;;;;;;;10.13;100.00;101868.03;6127891;23;20040;-65
2023/09/15 02:40:24;;;;;;;21.90;19.75;;;;;;;10.05;100.00;101871.47;6080319;23;20048;-65
2023/09/15 02:42:50;;;;;;;24.38;21.75;;;;;;;10.08;100.00;101859.28;6127500;23;20009;-65
2023/09/15 02:45:16;;;;;;;23.67;21.30;;;;;;;10.10;100.00;101865.38;6103703;23;20009;-66
2023/09/15 02:47:41;;;;;;;24.05;21.65;;;;;;;10.04;100.00;101854.03;6178837;23;20076;-65
2023/09/15 02:50:07;;;;;;;23.58;21.15;;;;;;;9.99;100.00;101860.97;6157593;23;20023;-65
2023/09/15 02:52:33;;;;;;;24.10;21.52;;;;;;;9.99;100.00;101858.34;6182638;23;20001;-65
2023/09/15 02:54:59;;;;;;;22.40;20.13;;;;;;;9.90;100.00;101863.53;6182370;23;20091;-65
2023/09/15 02:57:25;;;;;;;23.27;21.13;;;;;;;9.95;100.00;101861.78;6182141;23;20423;-65
2023/09/15 02:59:52;;;;;;;21.90;19.80;;;;;;;9.96;100.00;101863.56;6181937;23;20009;-65
2023/09/15 03:02:23;;;;;;;22.02;19.83;;;;;;;9.88;100.00;101860.91;6182182;23;20012;-65
2023/09/15 03:04:48;;;;;;;23.40;21.15;;;;;;;9.90;100.00;101858.28;6181762;23;20005;-65
2023/09/15 03:07:15;;;;;;;21.70;19.67;;;;;;;9.82;100.00;101855.59;6181147;23;20020;-65
2023/09/15 03:09:40;;;;;;;22.58;20.33;;;;;;;9.84;100.00;101852.97;6180585;23;20009;-65
2023/09/15 03:12:06;;;;;;;22.48;20.38;;;;;;;9.75;100.00;101859.03;6181534;23;20005;-65
2023/09/15 03:14:32;;;;;;;22.42;20.05;;;;;;;9.78;100.00;101845.09;6182016;23;20013;-66
2023/09/15 03:16:58;;;;;;;22.27;19.90;;;;;;;9.75;100.00;101858.16;6205655;23;20012;-65
2023/09/15 03:19:26;;;;;;;22.95;20.60;;;;;;;9.73;100.00;101857.28;6179706;23;20001;-66
2023/09/15 03:21:52;;;;;;;23.95;21.65;;;;;;;9.78;100.00;101852.94;6181737;23;20005;-65
2023/09/15 03:24:18;;;;;;;23.30;21.10;;;;;;;9.75;100.00;101847.69;6180802;23;20076;-65
2023/09/15 03:26:44;;;;;;;23.17;20.90;;;;;;;9.74;100.00;101845.94;6180023;23;20128;-65
2023/09/15 03:29:09;;;;;;;23.00;20.80;;;;;;;9.71;100.00;101854.63;6155940;23;20045;-68
2023/09/15 03:31:35;;;;;;;23.98;21.70;;;;;;;9.69;100.00;101844.16;6178860;23;20094;-68
2023/09/15 03:34:00;;;;;;;23.25;20.95;;;;;;;9.67;100.00;101835.41;6180366;23;20140;-68
2023/09/15 03:36:28;;;;;;;23.65;21.13;;;;;;;9.64;100.00;101847.59;6179837;23;20009;-69
2023/09/15 03:38:53;;;;;;;22.27;20.13;;;;;;;9.66;100.00;101832.78;6156699;23;20016;-68
2023/09/15 03:41:19;;;;;;;23.75;21.27;;;;;;;9.63;100.00;101840.63;6205378;23;20013;-68
2023/09/15 03:43:44;;;;;;;23.23;20.92;;;;;;;9.59;100.00;101839.72;6179112;23;20016;-69
2023/09/15 03:46:10;;;;;;;23.67;21.38;;;;;;;9.58;100.00;101837.09;6180494;23;20343;-65
2023/09/15 03:48:35;;;;;;;21.73;19.63;;;;;;;9.56;100.00;101831.84;6154650;23;20577;-65
2023/09/15 03:51:01;;;;;;;23.15;20.85;;;;;;;9.57;100.00;101833.59;6153839;23;20016;-69
2023/09/15 03:53:27;;;;;;;21.50;19.35;;;;;;;9.56;100.00;101839.69;6157891;23;20013;-69
2023/09/15 03:55:52;;;;;;;23.45;19.88;;;;;;;9.54;100.00;101837.06;6181655;23;20016;-69
2023/09/15 03:58:17;;;;;;;21.95;19.60;;;;;;;9.55;100.00;101830.06;6156543;23;20013;-69
2023/09/15 04:00:43;;;;;;;21.55;19.02;;;;;;;9.43;100.00;101837.84;6154539;23;20447;-68
2023/09/15 04:03:09;;;;;;;22.08;19.95;;;;;;;9.45;100.00;101838.72;6181624;23;20013;-69
2023/09/15 04:05:34;;;;;;;21.88;18.92;;;;;;;9.36;100.00;101832.53;6156786;23;20103;-69
2023/09/15 04:08:00;;;;;;;20.90;18.80;;;;;;;9.35;100.00;101829.91;6156654;23;20163;-68
2023/09/15 04:10:25;;;;;;;22.63;20.35;;;;;;;9.45;100.00;101823.03;6157436;23;20104;-69
2023/09/15 04:12:51;;;;;;;23.25;20.70;;;;;;;9.41;100.00;101832.59;6155388;23;20017;-68
2023/09/15 04:15:16;;;;;;;23.60;20.58;;;;;;;9.41;100.00;101827.38;6157728;23;20033;-69
2023/09/15 04:17:42;;;;;;;21.95;19.75;;;;;;;9.32;100.00;101830.78;6178714;23;20095;-65
2023/09/15 04:20:11;;;;;;;20.15;18.00;;;;;;;9.27;100.00;101824.59;6132675;23;20316;-65
2023/09/15 04:22:38;;;;;;;19.50;17.80;;;;;;;9.05;100.00;101827.88;6154597;23;20041;-66
2023/09/15 04:25:05;;;;;;;58.72;52.72;;;;;;;9.11;100.00;101822.72;6154514;23;20023;-65
2023/09/15 04:27:32;;;;;;;24.65;22.08;;;;;;;9.27;100.00;101821.13;6203601;23;20012;-65
2023/09/15 04:29:58;;;;;;;25.63;21.45;;;;;;;9.14;100.00;101820.13;6178774;23;20466;-65
2023/09/15 04:32:23;;;;;;;21.98;19.65;;;;;;;9.23;100.00;101820.22;6153815;23;19998;-65
2023/09/15 04:34:50;;;;;;;25.90;20.00;;;;;;;9.18;100.00;101825.41;6182140;23;20005;-66
2023/09/15 04:37:15;;;;;;;23.60;20.92;;;;;;;9.15;100.00;101821.88;6182105;23;20040;-65
2023/09/15 04:39:41;;;;;;;25.92;23.33;;;;;;;9.13;100.00;101826.22;6155921;23;20063;-66
2023/09/15 04:42:06;;;;;;;21.27;19.13;;;;;;;9.06;100.00;101820.03;6181500;23;20009;-66
2023/09/15 04:44:32;;;;;;;22.58;20.33;;;;;;;9.12;100.00;101821.84;6157023;23;20017;-65
2023/09/15 04:46:57;;;;;;;20.48;18.50;;;;;;;9.09;100.00;101814.84;6156701;23;20358;-66
2023/09/15 04:49:23;;;;;;;20.27;18.38;;;;;;;9.14;100.00;101822.75;6181464;23;20005;-65
2023/09/15 04:51:48;;;;;;;20.40;18.25;;;;;;;9.10;100.00;101820.97;6182047;23;20012;-66
2023/09/15 04:54:14;;;;;;;26.20;23.60;;;;;;;9.12;100.00;101824.44;6156975;23;20012;-65
2023/09/15 04:56:40;;;;;;;23.33;20.88;;;;;;;9.12;100.00;101820.13;6157155;23;20023;-66
2023/09/15 04:59:15;;;;;;;25.08;22.38;;;;;;;9.15;100.00;101825.38;6181718;23;20388;-66
2023/09/15 05:01:41;;;;;;;26.02;23.17;;;;;;;9.12;100.00;101827.06;6182268;23;20009;-66
2023/09/15 05:04:07;;;;;;;27.77;25.00;;;;;;;9.14;100.00;101835.81;6131556;23;20056;-66
2023/09/15 05:06:32;;;;;;;23.17;20.77;;;;;;;9.11;100.00;101836.66;6157296;23;20397;-66
2023/09/15 05:08:58;;;;;;;22.92;20.63;;;;;;;9.10;100.00;101832.28;6156801;23;20364;-65
2023/09/15 05:11:23;;;;;;;20.63;18.40;;;;;;;9.05;100.00;101836.63;6132480;23;20527;-65
2023/09/15 05:13:48;;;;;;;22.35;18.92;;;;;;;9.15;100.00;101828.00;6157121;23;20009;-66
2023/09/15 05:16:16;;;;;;;20.80;18.20;;;;;;;9.13;100.00;101834.94;6182409;23;20013;-65
2023/09/15 05:18:42;;;;;;;22.73;18.73;;;;;;;9.16;100.00;101839.31;6156940;23;20009;-66
2023/09/15 05:21:07;;;;;;;32.00;28.70;;;;;;;9.17;100.00;101841.09;6157520;23;20023;-66
2023/09/15 05:23:33;;;;;;;37.47;33.50;;;;;;;9.17;100.00;101841.09;6157313;23;20035;-66
2023/09/15 05:25:59;;;;;;;38.75;34.60;;;;;;;9.15;100.00;101838.44;6183321;23;20055;-66
2023/09/15 05:28:24;;;;;;;23.00;20.50;;;;;;;9.13;100.00;101841.91;6181661;23;20424;-66
2023/09/15 05:30:56;;;;;;;22.80;17.67;;;;;;;9.16;100.00;101847.16;6182053;23;20040;-66
2023/09/15 05:33:21;;;;;;;21.40;17.77;;;;;;;9.26;100.00;101849.00;6181826;23;20041;-66
2023/09/15 05:35:47;;;;;;;22.20;18.33;;;;;;;9.34;100.00;101847.34;6181937;23;20016;-66
2023/09/15 05:38:12;;;;;;;25.17;22.17;;;;;;;9.43;100.00;101845.69;6156847;23;20016;-66
2023/09/15 05:40:38;;;;;;;170.98;153.43;;;;;;;9.46;100.00;101850.94;6132561;23;20013;-66
2023/09/15 05:43:04;;;;;;;364.05;325.05;;;;;;;9.58;100.00;101845.81;6182886;23;20023;-65
2023/09/15 05:45:29;;;;;;;103.03;91.95;;;;;;;9.68;100.00;101849.38;6184104;23;20008;-66
2023/09/15 05:47:55;;;;;;;36.95;33.03;;;;;;;9.75;100.00;101852.94;6157659;23;20410;-66
2023/09/15 05:50:20;;;;;;;35.42;29.92;;;;;;;9.86;100.00;101846.03;6159308;23;20017;-66
2023/09/15 05:52:45;;;;;;;34.13;30.83;;;;;;;9.99;100.00;101842.63;6158916;23;20339;-66
2023/09/15 05:55:11;;;;;;;20.70;18.63;;;;;;;10.03;100.00;101852.25;6184122;23;20008;-66
2023/09/15 05:57:36;;;;;;;18.73;16.83;;;;;;;10.06;100.00;101841.81;6157788;23;20317;-66
2023/09/15 06:00:02;;;;;;;20.25;16.27;;;;;;;10.17;100.00;101847.13;6183173;23;20025;-66
2023/09/15 06:02:28;;;;;;;17.95;15.57;;;;;;;10.37;100.00;101844.66;6182593;23;20395;-66
2023/09/15 06:04:54;;;;;;;16.73;15.02;;;;;;;10.58;100.00;101838.59;6183284;23;20009;-66
2023/09/15 06:07:20;;;;;;;19.95;18.00;;;;;;;11.09;100.00;101837.88;6183546;23;20398;-66
2023/09/15 06:09:47;;;;;;;18.98;16.95;;;;;;;12.42;100.00;101851.84;6183589;23;20092;-67
2023/09/15 06:12:12;;;;;;;12.85;11.20;;;;;;;13.48;100.00;101850.44;6157600;23;20794;-66
2023/09/15 06:14:38;;;;;;;13.52;9.85;;;;;;;15.02;90.69;101849.69;6133628;23;20023;-66
2023/09/15 06:17:04;;;;;;;11.38;9.15;;;;;;;15.75;86.42;101849.44;6134079;23;20009;-66
2023/09/15 06:19:29;;;;;;;9.63;8.68;;;;;;;16.50;81.58;101847.16;6158392;23;20005;-66
2023/09/15 06:21:54;;;;;;;11.30;9.40;;;;;;;17.45;76.85;101859.22;6158166;23;20495;-66
2023/09/15 06:24:20;;;;;;;11.30;7.40;;;;;;;18.47;71.35;101859.22;6158580;23;20324;-66
2023/09/15 06:26:47;;;;;;;9.10;7.07;;;;;;;18.81;68.15;101860.91;6158282;23;20415;-66
2023/09/15 06:29:15;;;;;;;9.75;7.40;;;;;;;19.41;66.36;101850.19;6183650;23;20431;-66
2023/09/15 06:31:41;;;;;;;13.25;7.10;;;;;;;19.77;63.83;101853.41;6182922;23;20012;-66
2023/09/15 06:34:07;;;;;;;15.20;7.50;;;;;;;19.71;64.31;101853.59;6157662;23;20339;-66
2023/09/15 06:36:32;;;;;;;8.60;6.57;;;;;;;20.71;61.65;101847.41;6158936;23;20027;-66
2023/09/15 06:38:58;;;;;;;12.43;6.75;;;;;;;21.07;60.39;101848.69;6158186;23;20104;-66
2023/09/15 06:41:23;;;;;;;8.88;6.63;;;;;;;22.31;58.03;101850.59;6183238;23;20017;-66
2023/09/15 06:43:49;;;;;;;9.38;6.55;;;;;;;22.64;55.32;101842.00;6157281;23;20076;-66
2023/09/15 06:46:18;;;;;;;6.93;5.63;;;;;;;22.66;53.54;101850.78;6182829;23;20043;-67
2023/09/15 06:48:44;;;;;;;10.10;7.20;;;;;;;23.29;53.39;101841.59;6159012;23;20009;-66
2023/09/15 06:51:10;;;;;;;8.93;5.65;;;;;;;22.66;52.01;101839.25;6158462;23;20067;-66
2023/09/15 06:53:35;;;;;;;9.88;6.20;;;;;;;23.00;54.38;101838.50;6182704;23;20088;-66
2023/09/15 06:56:00;;;;;;;8.20;6.10;;;;;;;23.41;52.11;101837.44;6182380;23;20063;-66
2023/09/15 06:58:28;;;;;;;7.55;5.75;;;;;;;22.84;51.92;101838.38;6158594;23;20084;-67
2023/09/15 07:00:55;;;;;;;8.75;5.72;;;;;;;23.87;50.47;101843.13;6182748;23;20013;-67
2023/09/15 07:03:21;;;;;;;9.25;5.50;;;;;;;23.48;51.35;101830.81;6182480;23;20013;-67
2023/09/15 07:05:46;;;;;;;9.20;5.63;;;;;;;24.44;48.03;101835.69;6182638;23;20020;-67
2023/09/15 07:08:12;;;;;;;7.15;5.30;;;;;;;23.73;48.84;101831.38;6158287;23;20466;-67
2023/09/15 07:10:37;;;;;;;8.63;5.78;;;;;;;23.60;50.06;101836.50;6182777;23;20052;-66
2023/09/15 07:13:03;;;;;;;6.00;4.75;;;;;;;23.81;48.98;101838.06;6158308;23;20499;-67
2023/09/15 07:15:32;;;;;;;7.78;4.78;;;;;;;23.60;48.43;101834.69;6181825;23;20011;-67
2023/09/15 07:17:58;;;;;;;6.88;5.20;;;;;;;23.14;48.55;101835.19;6158002;23;20091;-67
2023/09/15 07:20:23;;;;;;;7.32;5.53;;;;;;;23.34;50.39;101836.00;6158724;23;20032;-67
2023/09/15 07:22:48;;;;;;;6.97;4.80;;;;;;;23.74;50.94;101828.63;6182986;23;20076;-66
2023/09/15 07:25:16;;;;;;;9.02;5.40;;;;;;;23.23;50.93;101827.63;6206867;23;20427;-67
2023/09/15 07:27:41;;;;;;;7.40;5.30;;;;;;;22.52;51.73;101823.00;6182640;23;20343;-67
2023/09/15 07:30:10;;;;;;;8.88;5.50;;;;;;;21.31;54.81;101824.66;6182761;23;20009;-67
2023/09/15 07:32:35;;;;;;;8.85;5.53;;;;;;;20.78;57.23;101816.09;6158269;23;20009;-66
2023/09/15 07:35:01;;;;;;;7.75;5.35;;;;;;;20.34;59.90;101810.63;6157039;23;20508;-67
2023/09/15 07:37:26;;;;;;;8.65;5.57;;;;;;;20.23;60.81;101816.38;6182562;23;20020;-66
2023/09/15 07:39:52;;;;;;;6.55;5.20;;;;;;;20.19;63.31;101804.94;6182872;23;20051;-68
2023/09/15 07:42:17;;;;;;;7.25;5.93;;;;;;;19.84;60.99;101811.53;6182321;23;20040;-67
2023/09/15 07:44:43;;;;;;;7.45;5.65;;;;;;;20.06;63.49;101806.34;6157353;23;20055;-66
2023/09/15 07:47:12;;;;;;;8.40;5.00;;;;;;;20.48;61.78;101802.13;6156918;23;20344;-66
2023/09/15 07:49:37;;;;;;;8.70;5.45;;;;;;;20.62;61.25;101805.13;6159111;23;20016;-66
2023/09/15 07:52:03;;;;;;;8.63;5.68;;;;;;;20.22;62.65;101810.16;6182840;23;20008;-67
2023/09/15 07:54:29;;;;;;;8.27;5.60;;;;;;;19.59;63.94;101812.34;6182765;23;20005;-69
2023/09/15 07:56:55;;;;;;;7.38;5.38;;;;;;;18.92;66.79;101811.00;6180709;23;20047;-69
2023/09/15 07:59:20;;;;;;;7.88;6.32;;;;;;;18.67;69.76;101806.41;6182233;23;20016;-69
2023/09/15 08:01:46;;;;;;;6.22;5.60;;;;;;;18.73;70.79;101804.50;6182468;23;20466;-69
2023/09/15 08:04:12;;;;;;;10.65;6.05;;;;;;;17.95;69.48;101800.53;6181986;23;20040;-69
2023/09/15 08:06:37;;;;;;;8.07;6.15;;;;;;;17.70;72.56;101802.94;6156759;23;20095;-69
2023/09/15 08:09:04;;;;;;;11.38;6.32;;;;;;;17.55;72.11;101801.56;6157596;23;20455;-69
2023/09/15 08:11:34;;;;;;;9.32;6.85;;;;;;;17.51;74.69;101795.44;6157344;23;20124;-69
2023/09/15 08:14:00;;;;;;;7.68;6.00;;;;;;;17.28;73.02;101804.88;6182274;23;20009;-69
2023/09/15 08:16:26;;;;;;;9.13;6.30;;;;;;;17.05;75.90;101791.28;6182069;23;20016;-69
2023/09/15 08:18:51;;;;;;;9.25;6.63;;;;;;;17.04;75.85;101802.78;6179929;23;20325;-69
2023/09/15 08:21:16;;;;;;;8.90;6.90;;;;;;;17.07;75.88;101790.34;6156925;23;20013;-69
2023/09/15 08:23:42;;;;;;;9.27;6.60;;;;;;;17.12;77.14;101792.88;6156282;23;20024;-69
2023/09/15 08:26:08;;;;;;;8.95;6.57;;;;;;;17.15;77.05;101800.75;6157037;23;20089;-68
2023/09/15 08:28:34;;;;;;;9.45;6.13;;;;;;;17.07;76.52;101800.09;6182592;23;20015;-69
2023/09/15 08:30:59;;;;;;;10.65;6.68;;;;;;;17.31;76.37;101795.94;6131519;23;20013;-69
2023/09/15 08:33:24;;;;;;;10.25;7.05;;;;;;;17.65;74.28;101793.31;6156936;23;20013;-68
2023/09/15 08:35:50;;;;;;;8.65;6.68;;;;;;;17.76;74.53;101794.84;6207473;23;20534;-68
2023/09/15 08:38:15;;;;;;;6.82;6.20;;;;;;;17.70;75.30;101794.97;6182355;23;20013;-69
2023/09/15 08:40:54;;;;;;;8.32;6.53;;;;;;;17.66;76.36;101788.91;6181283;23;20111;-69
2023/09/15 08:43:22;;;;;;;7.90;6.60;;;;;;;17.81;75.09;101793.81;6181813;23;20355;-68
2023/09/15 08:45:49;;;;;;;7.03;6.13;;;;;;;17.76;76.55;101794.84;6182617;23;20436;-69
2023/09/15 08:48:21;;;;;;;9.45;6.53;;;;;;;17.71;76.82;101796.72;6181293;23;20041;-69
2023/09/15 08:50:47;;;;;;;8.32;6.70;;;;;;;17.70;75.60;101795.88;6183993;23;20085;-68
2023/09/15 08:53:14;;;;;;;9.25;6.60;;;;;;;17.69;75.17;101787.97;6180403;23;20071;-69
2023/09/15 08:55:40;;;;;;;9.27;6.80;;;;;;;17.46;74.86;101789.41;6156998;23;20009;-69
2023/09/15 08:58:07;;;;;;;8.25;6.97;;;;;;;17.40;76.01;101785.13;6181861;23;20005;-69
2023/09/15 09:00:33;;;;;;;9.25;6.40;;;;;;;17.37;75.09;101786.97;6182399;23;20060;-68
2023/09/15 09:02:59;;;;;;;8.63;6.40;;;;;;;17.70;75.14;101779.06;6156189;23;20013;-69
2023/09/15 09:05:28;;;;;;;10.88;7.22;;;;;;;17.97;78.57;101767.78;6157107;23;20009;-68
2023/09/15 09:07:56;;;;;;;9.68;7.53;;;;;;;18.02;76.40;101764.97;6157359;23;20329;-68
2023/09/15 09:10:23;;;;;;;9.38;7.15;;;;;;;18.06;74.87;101765.75;6182088;23;20005;-68
2023/09/15 09:12:48;;;;;;;11.43;7.20;;;;;;;18.08;74.79;101766.59;6181131;23;19997;-68
2023/09/15 09:15:15;;;;;;;8.00;7.20;;;;;;;18.27;75.59;101781.03;6182042;23;20347;-68
2023/09/15 09:17:41;;;;;;;10.15;7.63;;;;;;;18.21;73.98;101781.22;6181060;23;20001;-69
2023/09/15 09:20:08;;;;;;;10.02;6.40;;;;;;;18.40;74.75;101780.69;6157113;23;20020;-69
2023/09/15 09:22:34;;;;;;;11.07;6.93;;;;;;;18.23;74.41;101767.91;6181685;23;20012;-68
2023/09/15 09:25:00;;;;;;;9.40;7.22;;;;;;;18.24;75.54;101774.97;6180470;23;20363;-68
2023/09/15 09:27:35;;;;;;;9.52;7.95;;;;;;;18.38;75.69;101769.28;6181403;23;20455;-69
2023/09/15 09:30:01;;;;;;;8.73;7.32;;;;;;;18.49;74.62;101775.13;6157462;23;20339;-68
2023/09/15 09:32:26;;;;;;;10.52;8.00;;;;;;;18.57;77.59;101762.47;6181313;23;20019;-69
2023/09/15 09:34:53;;;;;;;10.48;7.60;;;;;;;18.50;73.64;101763.56;6181544;23;20013;-68
2023/09/15 09:37:24;;;;;;;8.23;6.78;;;;;;;18.65;74.63;101765.78;6181644;23;20057;-69
2023/09/15 09:39:51;;;;;;;8.88;7.22;;;;;;;18.60;72.58;101759.72;6181989;23;20008;-68
2023/09/15 09:42:17;;;;;;;9.98;6.75;;;;;;;18.65;73.88;101760.47;6155538;23;20097;-69
2023/09/15 09:44:43;;;;;;;9.23;7.20;;;;;;;18.68;75.01;101748.88;6181481;23;20436;-68
2023/09/15 09:47:09;;;;;;;10.10;6.97;;;;;;;18.95;74.37;101763.09;6206137;23;20028;-68
2023/09/15 09:49:36;;;;;;;8.13;6.25;;;;;;;18.94;72.07;101758.69;6157441;23;20068;-68
2023/09/15 09:52:03;;;;;;;7.97;6.63;;;;;;;18.82;69.42;101751.97;6156971;23;20092;-68
2023/09/15 09:54:31;;;;;;;9.57;7.13;;;;;;;18.87;71.79;101755.38;6181035;23;20321;-68
2023/09/15 09:56:57;;;;;;;8.07;6.47;;;;;;;18.99;74.41;101754.13;6156307;23;20009;-68
2023/09/15 09:59:22;;;;;;;12.38;7.38;;;;;;;19.14;74.35;101758.06;6156688;23;20467;-68
2023/09/15 10:01:48;;;;;;;9.48;7.28;;;;;;;19.26;73.10;101755.91;6156988;23;20016;-68
2023/09/15 10:04:14;;;;;;;12.02;8.38;;;;;;;19.33;72.96;101758.28;6156166;23;20017;-68
2023/09/15 10:06:39;;;;;;;10.20;7.15;;;;;;;19.33;70.33;101746.81;6180322;23;20013;-69
2023/09/15 10:09:05;;;;;;;8.40;7.22;;;;;;;19.24;70.22;101758.63;6156483;23;20032;-68
2023/09/15 10:11:35;;;;;;;8.65;7.32;;;;;;;19.41;70.25;101751.84;6156112;23;20440;-68
2023/09/15 10:14:04;;;;;;;13.60;7.35;;;;;;;19.25;68.92;101752.41;6211160;22;20008;-66
2023/09/15 10:16:32;;;;;;;8.83;7.03;;;;;;;19.30;70.15;101745.13;6191237;23;20012;-69
2023/09/15 10:18:58;;;;;;;8.68;6.30;;;;;;;19.58;71.60;101738.84;6215668;23;20330;-68
2023/09/15 10:21:26;;;;;;;8.85;6.78;;;;;;;19.77;69.80;101736.41;6216468;23;20004;-68
2023/09/15 10:24:06;;;;;;;8.85;7.57;;;;;;;19.63;69.38;101734.22;6216674;22;20024;-67
2023/09/15 10:26:33;;;;;;;9.60;7.47;;;;;;;19.56;68.01;101728.25;6181814;23;20019;-66
2023/09/15 10:29:04;;;;;;;9.10;7.35;;;;;;;19.59;68.66;101724.63;6162564;22;20016;-64
2023/09/15 10:31:34;;;;;;;8.80;7.70;;;;;;;19.65;72.30;101726.19;6243410;22;20012;-65
2023/09/15 10:34:04;;;;;;;8.02;6.93;;;;;;;19.66;66.70;101723.47;6191828;22;20016;-66
2023/09/15 10:36:31;;;;;;;10.93;6.85;;;;;;;19.64;66.53;101719.13;6167741;23;20012;-66
2023/09/15 10:38:59;;;;;;;9.13;7.00;;;;;;;19.62;68.39;101713.88;6217520;23;20080;-67
2023/09/15 10:41:29;;;;;;;11.85;6.90;;;;;;;19.81;68.95;101716.78;6189846;23;20368;-68
2023/09/15 10:43:55;;;;;;;7.00;6.07;;;;;;;19.79;67.93;101707.13;6192390;23;20016;-67
2023/09/15 10:46:20;;;;;;;11.30;7.38;;;;;;;19.93;67.90;101704.81;6191405;22;20307;-67
2023/09/15 10:48:48;;;;;;;8.40;6.55;;;;;;;19.87;66.68;101707.72;6192401;22;20008;-68
2023/09/15 10:51:16;;;;;;;7.75;5.95;;;;;;;19.94;66.94;101705.69;6218841;22;20074;-68
2023/09/15 10:54:07;;;;;;;7.60;6.32;;;;;;;20.08;66.45;101708.69;6201040;22;20028;31
2023/09/15 10:56:33;;;;;;;7.97;5.57;;;;;;;19.97;66.70;101701.13;6182292;23;20021;-68
2023/09/15 10:58:59;;;;;;;7.70;5.78;;;;;;;20.10;67.18;101695.31;6132372;23;20009;-67
2023/09/15 11:01:24;;;;;;;8.13;6.10;;;;;;;20.13;66.78;101681.91;6223514;22;20055;-66
2023/09/15 11:03:50;;;;;;;6.97;5.45;;;;;;;20.14;65.54;101702.28;6206049;23;20039;-68
2023/09/15 11:06:18;;;;;;;8.10;5.53;;;;;;;20.37;70.11;101694.28;6242090;22;20065;-68
2023/09/15 11:08:44;;;;;;;7.35;6.18;;;;;;;20.31;67.83;101683.84;6219184;22;20004;-68
2023/09/15 11:11:10;;;;;;;8.52;6.57;;;;;;;20.40;68.24;101704.78;6185298;23;20019;-68
2023/09/15 11:13:40;;;;;;;7.85;5.72;;;;;;;20.27;65.92;101682.25;6186316;23;20008;-68
2023/09/15 11:16:06;;;;;;;;;;;;;;;20.57;68.11;101684.59;6219113;22;20073;-66
2023/09/15 11:18:36;;;;;;;7.32;5.53;;;;;;;20.54;65.70;101687.41;6214279;23;20233;-68
2023/09/15 11:21:02;;;;;;;14.45;6.05;;;;;;;20.41;65.43;101673.72;6243023;23;20026;-68
2023/09/15 11:23:28;;;;;;;8.57;5.18;;;;;;;20.62;67.52;101674.66;6218260;23;20047;-68
2023/09/15 11:26:05;;;;;;;11.30;5.78;;;;;;;20.63;66.95;101683.50;6243031;23;20008;-68
2023/09/15 11:28:31;;;;;;;7.93;5.55;;;;;;;20.73;67.42;101677.78;6242979;23;20393;-68
2023/09/15 11:30:58;;;;;;;8.07;5.43;;;;;;;20.67;65.49;101678.00;6240950;23;20039;-68
2023/09/15 11:33:25;;;;;;;7.80;5.85;;;;;;;20.53;64.97;101672.34;6191987;23;20008;-68
2023/09/15 11:35:51;;;;;;;6.55;5.13;;;;;;;20.61;65.42;101670.25;6217685;23;20008;-67
2023/09/15 11:38:17;;;;;;;9.55;5.65;;;;;;;20.61;64.90;101664.91;6242719;23;20000;-68
2023/09/15 11:40:49;;;;;;;7.65;5.18;;;;;;;20.66;65.23;101673.59;6215473;23;20012;-67
2023/09/15 11:43:15;;;;;;;7.65;5.30;;;;;;;20.86;66.89;101663.94;6215299;23;20050;-68
2023/09/15 11:45:42;;;;;;;6.45;4.80;;;;;;;20.73;65.52;101667.13;6192480;23;20358;-67
2023/09/15 11:48:08;;;;;;;8.07;5.70;;;;;;;20.71;66.07;101665.44;6216969;23;20004;-68
2023/09/15 11:50:35;;;;;;;10.75;6.15;;;;;;;20.83;66.48;101658.72;6192710;23;20031;-67
2023/09/15 11:53:02;;;;;;;7.65;5.03;;;;;;;21.03;67.65;101661.44;6216676;23;20017;-67
2023/09/15 11:55:28;;;;;;;8.50;4.93;;;;;;;21.12;66.03;101660.19;6242958;23;20012;-67
2023/09/15 11:57:55;;;;;;;8.07;4.90;;;;;;;20.92;63.62;101653.91;6216637;23;20069;-68